首页
METAR-TAF:

METAR-TAF

机场 :

卡塔尼亞-豐塔納羅沙機場

卡塔尼亞, 意大利

纬度: 37-28N, 经度: 015-03E, 海拔: 11米

当前天气观测

该预报发布于23分钟前的04:50 UTC
风速3节,风向西转西南,在西南西之间变化
温度 14°C
湿度 82%
气压 1022 hPa
能见度10公里或以上
1500米以下无云,无积雨云

METAR: LICC 250450Z 25003KT 220V280 CAVOK 14/11 Q1022

时间: 07:13 (05:13 UTC)

预报

该预报发布于6小时和13分钟前的23:00 UTC
预报有效从25日的 00点(UTC)到 25日的 24点(UTC)
风速5节,风向多变
能见度10公里或以上
1500米以下无云,无积雨云
成为
从 25日的 08点(UTC)到 25日的 10点(UTC)
风速12节,风向

TAF: LICC 242300Z 2500/2524 VRB05KT CAVOK BECMG 2508/2510 08012KT

超过4000个机场的气象观测和天气预报(METAR&TAF报告)。

可查询的气象台以黄色和红色小点在地图上表示。

将鼠标移到小点上方,可查看气象台名称。

然后点击查看天气观测和预报。

如需切换地图:点击带黑十字的绿色按钮放大地图;点击带横线的绿色按钮缩小地图;或者点击绿色箭头查看邻近地区的地图。


METAR-TAF: